createdAt,value
2022-09-15T00:02:10.281Z,24.05
2022-09-15T00:04:37.023Z,24.48
2022-09-15T00:07:03.481Z,25.20
2022-09-15T00:09:32.214Z,23.77
2022-09-15T00:11:58.686Z,24.38
2022-09-15T00:14:25.161Z,24.85
2022-09-15T00:16:51.645Z,25.35
2022-09-15T00:19:18.135Z,27.10
2022-09-15T00:21:44.532Z,24.00
2022-09-15T00:24:10.989Z,23.90
2022-09-15T00:26:37.907Z,22.70
2022-09-15T00:29:05.031Z,23.05
2022-09-15T00:31:32.054Z,22.40
2022-09-15T00:34:02.666Z,22.50
2022-09-15T00:36:29.055Z,21.10
2022-09-15T00:38:56.048Z,20.23
2022-09-15T00:41:24.486Z,19.38
2022-09-15T00:44:00.041Z,20.58
2022-09-15T00:46:33.734Z,18.67
2022-09-15T00:49:20.326Z,19.85
2022-09-15T00:52:01.312Z,18.38
2022-09-15T00:54:36.193Z,17.70
2022-09-15T00:57:06.273Z,16.88
2022-09-15T00:59:36.919Z,18.90
2022-09-15T01:02:08.873Z,18.60
2022-09-15T01:04:35.318Z,18.67
2022-09-15T01:07:04.591Z,18.85
2022-09-15T01:09:41.787Z,19.08
2022-09-15T01:12:08.279Z,22.35
2022-09-15T01:14:34.761Z,21.35
2022-09-15T01:17:35.273Z,21.02
2022-09-15T01:20:20.366Z,18.40
2022-09-15T01:22:56.682Z,19.67
2022-09-15T01:25:55.385Z,19.60
2022-09-15T01:28:43.954Z,18.02
2022-09-15T01:31:29.182Z,18.52
2022-09-15T01:34:03.051Z,21.27
2022-09-15T01:36:37.984Z,20.23
2022-09-15T01:39:13.231Z,23.15
2022-09-15T01:41:55.883Z,21.17
2022-09-15T01:44:25.543Z,21.15
2022-09-15T01:46:59.923Z,20.50
2022-09-15T01:49:29.166Z,21.35
2022-09-15T01:51:55.828Z,22.23
2022-09-15T01:54:26.747Z,22.58
2022-09-15T01:56:53.153Z,20.13
2022-09-15T01:59:19.560Z,20.27
2022-09-15T02:01:51.501Z,23.42
2022-09-15T02:04:45.838Z,22.17
2022-09-15T02:07:26.271Z,26.15
2022-09-15T02:09:57.816Z,24.95
2022-09-15T02:12:42.171Z,26.00
2022-09-15T02:15:14.926Z,29.55
2022-09-15T02:17:43.621Z,30.58
2022-09-15T02:20:42.298Z,25.95
2022-09-15T02:23:16.057Z,28.15
2022-09-15T02:25:50.705Z,29.98
2022-09-15T02:28:19.268Z,31.48
2022-09-15T02:30:46.629Z,28.55
2022-09-15T02:33:40.677Z,28.75
2022-09-15T02:36:08.680Z,29.15
2022-09-15T02:38:39.020Z,27.77
2022-09-15T02:41:05.850Z,28.55
2022-09-15T02:43:33.486Z,29.10
2022-09-15T02:46:00.195Z,30.50
2022-09-15T02:48:26.654Z,30.80
2022-09-15T02:50:53.094Z,29.63
2022-09-15T02:53:19.612Z,31.48
2022-09-15T02:55:46.378Z,30.23
2022-09-15T02:58:12.754Z,28.58
2022-09-15T03:00:39.155Z,28.77
2022-09-15T03:03:05.764Z,30.55
2022-09-15T03:05:32.216Z,31.17
2022-09-15T03:07:58.673Z,29.23
2022-09-15T03:10:25.722Z,30.60
2022-09-15T03:12:53.124Z,29.85
2022-09-15T03:15:22.313Z,31.25
2022-09-15T03:17:49.083Z,30.20
2022-09-15T03:20:17.963Z,31.10
2022-09-15T03:22:44.496Z,31.38
2022-09-15T03:25:11.300Z,33.33
2022-09-15T03:27:38.032Z,33.00
2022-09-15T03:30:06.358Z,30.73
2022-09-15T03:32:33.123Z,30.92
2022-09-15T03:34:59.535Z,30.70
2022-09-15T03:37:26.210Z,31.42
2022-09-15T03:39:52.746Z,30.33
2022-09-15T03:42:19.751Z,29.70
2022-09-15T03:44:46.303Z,28.85
2022-09-15T03:47:13.084Z,26.77
2022-09-15T03:49:39.485Z,28.20
2022-09-15T03:52:05.879Z,26.45
2022-09-15T03:54:32.343Z,24.92
2022-09-15T03:56:58.903Z,27.00
2022-09-15T03:59:25.326Z,26.20
2022-09-15T04:01:51.983Z,27.23
2022-09-15T04:04:18.536Z,24.27
2022-09-15T04:06:45.047Z,24.30
2022-09-15T04:09:11.703Z,24.63
2022-09-15T04:11:39.389Z,23.98
2022-09-15T04:14:05.843Z,26.08
2022-09-15T04:16:32.310Z,25.90
2022-09-15T04:18:58.943Z,25.50
2022-09-15T04:21:26.678Z,25.83
2022-09-15T04:23:53.981Z,24.60
2022-09-15T04:26:31.871Z,26.50
2022-09-15T04:29:03.647Z,29.08
2022-09-15T04:31:31.063Z,28.25
2022-09-15T04:33:57.641Z,27.48
2022-09-15T04:36:25.793Z,28.48
2022-09-15T04:38:52.455Z,28.30
2022-09-15T04:41:19.756Z,30.02
2022-09-15T04:43:54.177Z,29.17
2022-09-15T04:46:20.931Z,27.63
2022-09-15T04:48:48.609Z,27.73
2022-09-15T04:51:18.091Z,27.33
2022-09-15T04:53:44.976Z,29.70
2022-09-15T04:56:23.086Z,28.23
2022-09-15T04:59:02.688Z,28.60
2022-09-15T05:01:32.248Z,28.63
2022-09-15T05:03:58.947Z,28.02
2022-09-15T05:06:27.134Z,30.38
2022-09-15T05:08:55.839Z,28.77
2022-09-15T05:11:23.142Z,27.10
2022-09-15T05:13:49.650Z,27.60
2022-09-15T05:16:18.631Z,28.00
2022-09-15T05:18:46.854Z,28.00
2022-09-15T05:21:15.283Z,27.55
2022-09-15T05:23:41.932Z,30.42
2022-09-15T05:26:12.073Z,29.45
2022-09-15T05:28:38.569Z,31.27
2022-09-15T05:31:17.897Z,31.42
2022-09-15T05:33:45.346Z,31.48
2022-09-15T05:36:14.163Z,30.73
2022-09-15T05:38:41.305Z,32.60
2022-09-15T05:41:10.800Z,31.42
2022-09-15T05:43:38.010Z,32.58
2022-09-15T05:46:05.163Z,32.20
2022-09-15T05:48:31.700Z,31.30
2022-09-15T05:50:58.724Z,33.42
2022-09-15T05:53:25.931Z,32.55
2022-09-15T05:56:00.085Z,31.85
2022-09-15T05:58:27.504Z,29.67
2022-09-15T06:00:54.263Z,31.17
2022-09-15T06:03:21.759Z,30.48
2022-09-15T06:05:48.174Z,28.83
2022-09-15T06:08:14.549Z,29.33
2022-09-15T06:10:40.920Z,30.65
2022-09-15T06:13:07.384Z,29.80
2022-09-15T06:15:34.091Z,28.33
2022-09-15T06:18:00.471Z,27.77
2022-09-15T06:20:26.907Z,30.02
2022-09-15T06:22:54.072Z,29.38
2022-09-15T06:25:20.503Z,30.27
2022-09-15T06:27:49.249Z,28.98
2022-09-15T06:30:15.717Z,29.90
2022-09-15T06:32:47.400Z,28.80
2022-09-15T06:35:15.117Z,28.17
2022-09-15T06:37:41.496Z,29.67
2022-09-15T06:40:08.722Z,28.85
2022-09-15T06:42:35.184Z,27.90
2022-09-15T06:45:01.901Z,28.23
2022-09-15T06:47:33.705Z,26.60
2022-09-15T06:50:00.828Z,28.33
2022-09-15T06:52:27.894Z,25.38
2022-09-15T06:54:54.331Z,28.08
2022-09-15T06:57:20.751Z,26.75
2022-09-15T06:59:47.192Z,27.42
2022-09-15T07:02:13.820Z,25.52
2022-09-15T07:04:40.309Z,24.83
2022-09-15T07:07:06.692Z,23.60
2022-09-15T07:09:33.072Z,23.05
2022-09-15T07:11:59.487Z,20.58
2022-09-15T07:14:25.847Z,20.88
2022-09-15T07:16:52.232Z,19.65
2022-09-15T07:19:18.903Z,17.45
2022-09-15T07:21:47.619Z,17.77
2022-09-15T07:24:14.462Z,16.27
2022-09-15T07:26:41.414Z,17.45
2022-09-15T07:29:07.814Z,16.67
2022-09-15T07:31:36.448Z,14.35
2022-09-15T07:34:03.196Z,16.00
2022-09-15T07:36:30.236Z,16.92
2022-09-15T07:38:57.018Z,14.75
2022-09-15T07:41:28.849Z,13.50
2022-09-15T07:43:57.466Z,13.25
2022-09-15T07:46:25.256Z,12.20
2022-09-15T07:48:53.737Z,10.77
2022-09-15T07:51:20.246Z,12.32
2022-09-15T07:53:47.982Z,11.30
2022-09-15T07:56:15.358Z,12.75
2022-09-15T07:58:41.977Z,12.93
2022-09-15T08:01:11.630Z,12.60
2022-09-15T08:03:42.716Z,12.00
2022-09-15T08:06:10.397Z,12.10
2022-09-15T08:08:38.746Z,12.15
2022-09-15T08:11:10.110Z,13.27
2022-09-15T08:13:36.841Z,13.75
2022-09-15T08:16:08.649Z,13.02
2022-09-15T08:18:35.507Z,14.75
2022-09-15T08:21:06.434Z,14.48
2022-09-15T08:25:59.565Z,12.10
2022-09-15T08:28:26.332Z,13.18
2022-09-15T08:31:01.138Z,11.27
2022-09-15T08:33:28.829Z,11.77
2022-09-15T08:35:59.991Z,12.95
2022-09-15T08:38:26.393Z,10.90
2022-09-15T08:40:58.737Z,10.07
2022-09-15T08:43:26.889Z,9.23
2022-09-15T08:46:04.641Z,11.18
2022-09-15T08:48:35.278Z,10.80
2022-09-15T08:51:06.719Z,10.55
2022-09-15T08:53:39.927Z,10.48
2022-09-15T08:56:15.595Z,9.98
2022-09-15T08:58:41.989Z,8.82
2022-09-15T09:01:17.805Z,9.70
2022-09-15T09:04:05.878Z,9.50
2022-09-15T09:06:40.679Z,9.57
2022-09-15T09:09:34.693Z,8.77
2022-09-15T09:12:20.625Z,8.30
2022-09-15T09:15:16.051Z,6.97
2022-09-15T09:17:48.638Z,6.07
2022-09-15T09:20:39.897Z,5.65
2022-09-15T09:23:12.774Z,5.25
2022-09-15T09:25:40.653Z,4.97
2022-09-15T09:28:18.334Z,3.80
2022-09-15T09:30:44.848Z,3.35
2022-09-15T09:33:30.279Z,3.13
2022-09-15T09:36:00.053Z,2.95
2022-09-15T09:38:37.415Z,2.58
2022-09-15T09:41:15.563Z,2.70
2022-09-15T09:43:43.237Z,2.25
2022-09-15T09:46:16.329Z,2.30
2022-09-15T09:48:55.157Z,2.53
2022-09-15T09:51:35.512Z,2.75
2022-09-15T09:54:16.043Z,3.05
2022-09-15T09:56:44.132Z,2.63
2022-09-15T09:59:38.482Z,3.28
2022-09-15T10:02:12.148Z,3.00
2022-09-15T10:04:49.598Z,2.80
2022-09-15T10:07:19.421Z,2.70
2022-09-15T10:09:59.083Z,2.80
2022-09-15T10:12:30.454Z,2.80
2022-09-15T10:14:59.835Z,2.53
2022-09-15T10:17:38.176Z,3.45
2022-09-15T10:20:06.641Z,2.80
2022-09-15T10:22:35.185Z,3.35
2022-09-15T10:25:03.881Z,2.92
2022-09-15T10:27:32.980Z,3.42
2022-09-15T10:30:12.503Z,3.92
2022-09-15T10:32:39.046Z,3.50
2022-09-15T10:35:11.446Z,3.95
2022-09-15T10:37:47.359Z,2.20
2022-09-15T10:40:20.079Z,1.80
2022-09-15T10:42:53.998Z,2.03
2022-09-15T10:45:26.128Z,1.77
2022-09-15T10:48:11.256Z,2.30
2022-09-15T10:50:40.530Z,2.10
2022-09-15T10:53:19.046Z,1.90
2022-09-15T10:56:07.229Z,2.08
2022-09-15T10:59:00.895Z,1.80
2022-09-15T11:01:33.198Z,1.83
2022-09-15T11:04:25.081Z,2.17
2022-09-15T11:06:58.363Z,2.30
2022-09-15T11:09:27.059Z,2.20
2022-09-15T11:12:08.037Z,2.28
2022-09-15T11:17:24.911Z,1.92
2022-09-15T11:20:07.725Z,1.83
2022-09-15T11:22:49.573Z,2.50
2022-09-15T11:25:23.100Z,2.35
2022-09-15T11:27:54.082Z,2.35
2022-09-15T11:32:58.938Z,3.58
2022-09-15T11:35:34.609Z,3.30
2022-09-15T11:38:30.500Z,2.72
2022-09-15T11:41:16.367Z,2.83
2022-09-15T11:44:21.369Z,3.70
2022-09-15T11:46:57.293Z,3.28
2022-09-15T11:49:30.167Z,3.00
2022-09-15T11:52:22.454Z,3.85
2022-09-15T11:54:55.313Z,3.50
2022-09-15T11:57:26.879Z,4.18
2022-09-15T12:00:07.726Z,3.90
2022-09-15T12:02:42.685Z,3.88
2022-09-15T12:05:17.509Z,3.58
2022-09-15T12:07:53.212Z,3.05
2022-09-15T12:10:27.437Z,3.03
2022-09-15T12:12:54.045Z,3.00
2022-09-15T12:15:27.183Z,2.50
2022-09-15T12:18:27.642Z,2.97
2022-09-15T12:21:08.170Z,3.00
2022-09-15T12:24:00.333Z,3.00
2022-09-15T12:26:26.989Z,2.95
2022-09-15T12:28:57.963Z,3.00
2022-09-15T12:34:03.783Z,3.17
2022-09-15T12:36:46.011Z,3.03
2022-09-15T12:39:20.786Z,3.03
2022-09-15T12:41:53.197Z,3.42
2022-09-15T12:44:30.842Z,3.28
2022-09-15T12:46:58.158Z,3.47
2022-09-15T12:49:30.131Z,3.55
2022-09-15T12:51:57.264Z,3.08
2022-09-15T12:54:28.275Z,2.88
2022-09-15T12:56:55.163Z,2.13
2022-09-15T12:59:25.607Z,2.00
2022-09-15T13:01:53.640Z,1.80
2022-09-15T13:04:23.637Z,2.10
2022-09-15T13:07:21.499Z,1.63
2022-09-15T13:09:59.718Z,1.65
2022-09-15T13:12:36.659Z,1.85
2022-09-15T13:15:05.646Z,1.70
2022-09-15T13:17:33.494Z,1.90
2022-09-15T13:20:07.157Z,1.52
2022-09-15T13:22:41.280Z,1.98
2022-09-15T13:25:11.217Z,1.70
2022-09-15T13:27:40.661Z,1.40
2022-09-15T13:30:34.891Z,1.95
2022-09-15T13:40:12.893Z,1.58
2022-09-15T13:43:01.594Z,2.03
2022-09-15T13:46:02.355Z,2.08
2022-09-15T13:48:47.174Z,1.80
2022-09-15T13:51:27.262Z,1.80
2022-09-15T13:54:03.436Z,1.63
2022-09-15T13:56:33.594Z,1.70
2022-09-15T13:59:08.373Z,2.00
2022-09-15T14:01:40.030Z,1.75
2022-09-15T14:04:14.806Z,1.77
2022-09-15T14:06:44.622Z,1.63
2022-09-15T14:09:27.446Z,1.60
2022-09-15T14:11:59.454Z,1.80
2022-09-15T14:14:29.583Z,1.90
2022-09-15T14:16:57.643Z,1.90
2022-09-15T14:19:33.414Z,1.80
2022-09-15T14:22:26.306Z,1.95
2022-09-15T14:24:54.486Z,2.30
2022-09-15T14:27:27.634Z,2.15
2022-09-15T14:29:55.665Z,2.10
2022-09-15T14:32:29.101Z,2.30
2022-09-15T14:34:59.726Z,2.10
2022-09-15T14:37:38.128Z,2.58
2022-09-15T14:40:23.838Z,2.22
2022-09-15T14:42:52.433Z,2.00
2022-09-15T14:48:15.742Z,2.03
2022-09-15T14:50:44.800Z,2.60
2022-09-15T14:53:19.080Z,2.42
2022-09-15T14:55:57.224Z,2.67
2022-09-15T14:58:31.584Z,2.80
2022-09-15T15:01:02.252Z,2.45
2022-09-15T15:03:44.051Z,2.08
2022-09-15T15:06:29.094Z,2.45
2022-09-15T15:09:18.181Z,2.95
2022-09-15T15:11:44.613Z,2.72
2022-09-15T15:14:12.278Z,2.92
2022-09-15T15:16:50.266Z,3.00
2022-09-15T15:19:38.466Z,2.90
2022-09-15T15:22:16.558Z,2.90
2022-09-15T15:24:44.661Z,2.80
2022-09-15T15:27:32.943Z,2.50
2022-09-15T15:30:24.579Z,2.53
2022-09-15T15:32:51.835Z,2.60
2022-09-15T15:35:19.339Z,3.00
2022-09-15T15:37:47.101Z,3.55
2022-09-15T15:40:20.853Z,2.67
2022-09-15T15:42:57.822Z,2.58
2022-09-15T15:45:29.885Z,2.40
2022-09-15T15:47:56.889Z,2.28
2022-09-15T15:50:26.140Z,1.67
2022-09-15T15:52:52.943Z,2.28
2022-09-15T15:55:36.667Z,2.00
2022-09-15T15:58:03.223Z,1.90
2022-09-15T16:00:36.189Z,2.08
2022-09-15T16:03:02.567Z,1.60
2022-09-15T16:05:29.454Z,1.70
2022-09-15T16:07:56.919Z,1.58
2022-09-15T16:10:24.725Z,1.88
2022-09-15T16:12:51.957Z,1.70
2022-09-15T16:15:20.293Z,1.50
2022-09-15T16:17:48.927Z,1.63
2022-09-15T16:20:16.768Z,1.50
2022-09-15T16:22:43.607Z,1.63
2022-09-15T16:25:30.373Z,1.50
2022-09-15T16:27:56.801Z,2.08
2022-09-15T16:30:23.223Z,2.15
2022-09-15T16:32:49.673Z,1.60
2022-09-15T16:35:28.083Z,2.38
2022-09-15T16:37:54.545Z,2.08
2022-09-15T16:40:21.130Z,1.60
2022-09-15T16:42:48.502Z,1.67
2022-09-15T16:45:23.284Z,2.00
2022-09-15T16:47:49.678Z,1.98
2022-09-15T16:50:16.131Z,2.05
2022-09-15T16:52:42.789Z,1.92
2022-09-15T16:55:35.868Z,2.10
2022-09-15T16:58:03.946Z,1.90
2022-09-15T17:00:32.236Z,2.03
2022-09-15T17:02:58.895Z,1.90
2022-09-15T17:05:48.640Z,2.22
2022-09-15T17:08:15.696Z,1.92
2022-09-15T17:10:42.622Z,2.47
2022-09-15T17:13:12.171Z,2.10
2022-09-15T17:15:40.143Z,2.03
2022-09-15T17:18:07.908Z,2.38
2022-09-15T17:20:39.131Z,2.10
2022-09-15T17:23:31.023Z,2.08
2022-09-15T17:25:59.879Z,2.30
2022-09-15T17:28:28.767Z,1.90
2022-09-15T17:31:03.786Z,2.13
2022-09-15T17:33:31.419Z,2.25
2022-09-15T17:35:58.823Z,1.80
2022-09-15T17:38:25.537Z,2.38
2022-09-15T17:40:52.834Z,1.90
2022-09-15T17:43:22.175Z,1.90
2022-09-15T17:45:49.746Z,1.75
2022-09-15T17:48:17.027Z,1.65
2022-09-15T17:50:45.052Z,1.90
2022-09-15T17:53:13.328Z,1.77
2022-09-15T17:55:40.028Z,2.45
2022-09-15T17:58:08.699Z,1.80
2022-09-15T18:00:37.775Z,2.22
2022-09-15T18:03:28.160Z,2.08
2022-09-15T18:05:56.342Z,2.10
2022-09-15T18:08:22.750Z,2.15
2022-09-15T18:10:49.598Z,2.53
2022-09-15T18:13:21.556Z,2.50
2022-09-15T18:15:51.422Z,2.10
2022-09-15T18:18:27.940Z,3.08
2022-09-15T18:20:55.719Z,2.30
2022-09-15T18:23:24.313Z,2.30
2022-09-15T18:25:51.355Z,2.50
2022-09-15T18:28:18.538Z,2.33
2022-09-15T18:30:47.564Z,2.30
2022-09-15T18:33:24.767Z,2.10
2022-09-15T18:35:53.553Z,2.17
2022-09-15T18:38:20.596Z,2.40
2022-09-15T18:40:49.245Z,2.40
2022-09-15T18:43:17.257Z,2.05
2022-09-15T18:45:44.103Z,3.08
2022-09-15T18:48:12.781Z,2.97
2022-09-15T18:50:40.628Z,2.50
2022-09-15T18:53:07.322Z,2.35
2022-09-15T18:55:33.867Z,2.45
2022-09-15T18:58:01.300Z,2.75
2022-09-15T19:00:29.009Z,2.63
2022-09-15T19:02:57.150Z,2.50
2022-09-15T19:05:23.718Z,2.58
2022-09-15T19:07:50.301Z,2.55
2022-09-15T19:10:17.287Z,2.55
2022-09-15T19:12:44.116Z,2.20
2022-09-15T19:15:12.075Z,2.67
2022-09-15T19:17:39.345Z,2.63
2022-09-15T19:20:07.408Z,2.42
2022-09-15T19:22:34.160Z,2.30
2022-09-15T19:25:00.699Z,3.33
2022-09-15T19:27:27.395Z,3.03
2022-09-15T19:29:53.786Z,2.80
2022-09-15T19:32:20.983Z,2.90
2022-09-15T19:34:48.062Z,2.50
2022-09-15T19:37:18.825Z,2.78
2022-09-15T19:42:12.664Z,2.42
2022-09-15T19:44:39.289Z,2.25
2022-09-15T19:47:06.227Z,3.47
2022-09-15T19:49:32.704Z,2.15
2022-09-15T19:51:59.133Z,2.00
2022-09-15T19:54:27.420Z,2.40
2022-09-15T19:57:02.419Z,1.90
2022-09-15T19:59:31.527Z,1.95
2022-09-15T20:01:58.350Z,3.13
2022-09-15T20:04:27.570Z,2.47
2022-09-15T20:06:53.987Z,2.25
2022-09-15T20:09:20.371Z,2.30
2022-09-15T20:11:46.858Z,1.90
2022-09-15T20:14:13.743Z,2.20
2022-09-15T20:16:43.699Z,2.08
2022-09-15T20:19:10.335Z,1.80
2022-09-15T20:21:49.951Z,1.92
2022-09-15T20:24:17.588Z,1.63
2022-09-15T20:26:43.973Z,1.95
2022-09-15T20:29:10.830Z,1.73
2022-09-15T20:31:37.811Z,1.77
2022-09-15T20:34:04.234Z,1.80
2022-09-15T20:36:36.631Z,1.90
2022-09-15T20:39:09.177Z,2.10
2022-09-15T20:41:35.802Z,2.10
2022-09-15T20:44:02.502Z,1.80
2022-09-15T20:46:29.344Z,2.15
2022-09-15T20:48:58.885Z,2.17
2022-09-15T20:51:27.851Z,2.28
2022-09-15T20:53:55.965Z,2.17
2022-09-15T20:56:26.871Z,2.28
2022-09-15T20:58:54.492Z,2.70
2022-09-15T21:01:27.095Z,2.75
2022-09-15T21:03:56.534Z,2.72
2022-09-15T21:06:26.882Z,2.55
2022-09-15T21:08:55.537Z,2.92
2022-09-15T21:11:23.303Z,2.83
2022-09-15T21:13:55.998Z,2.60
2022-09-15T21:19:32.474Z,2.25
2022-09-15T21:21:59.400Z,2.50
2022-09-15T21:24:25.787Z,3.08
2022-09-15T21:27:10.823Z,2.85
2022-09-15T21:29:37.226Z,2.60
2022-09-15T21:32:03.927Z,2.80
2022-09-15T21:34:31.619Z,2.63
2022-09-15T21:37:00.923Z,2.60
2022-09-15T21:39:27.500Z,2.80
2022-09-15T21:41:54.100Z,2.67
2022-09-15T21:44:22.942Z,2.50
2022-09-15T21:46:49.337Z,2.75
2022-09-15T21:49:17.921Z,2.30
2022-09-15T21:51:44.545Z,2.15
2022-09-15T21:54:11.238Z,2.50
2022-09-15T21:56:37.744Z,2.40
2022-09-15T21:59:04.343Z,3.60
2022-09-15T22:01:32.100Z,2.33
2022-09-15T22:04:00.708Z,2.30
2022-09-15T22:06:31.571Z,2.38
2022-09-15T22:08:59.707Z,2.60
2022-09-15T22:11:26.084Z,2.30
2022-09-15T22:13:52.519Z,2.90
2022-09-15T22:16:20.997Z,2.33
2022-09-15T22:18:47.897Z,3.47
2022-09-15T22:21:19.684Z,2.10
2022-09-15T22:23:47.351Z,2.25
2022-09-15T22:26:17.519Z,2.45
2022-09-15T22:28:44.057Z,2.47
2022-09-15T22:31:14.285Z,2.05
2022-09-15T22:33:41.287Z,2.60
2022-09-15T22:36:15.786Z,2.38
2022-09-15T22:38:42.889Z,2.08
2022-09-15T22:41:12.038Z,2.05
2022-09-15T22:43:39.848Z,2.03
2022-09-15T22:46:06.741Z,2.00
2022-09-15T22:48:33.458Z,1.95
2022-09-15T22:50:59.957Z,2.40
2022-09-15T22:53:26.663Z,2.00
2022-09-15T22:56:10.167Z,2.30
2022-09-15T22:58:37.024Z,2.13
2022-09-15T23:01:09.911Z,2.15
2022-09-15T23:03:37.006Z,2.20
2022-09-15T23:06:05.349Z,2.20
2022-09-15T23:08:32.240Z,2.38
2022-09-15T23:11:07.672Z,2.20
2022-09-15T23:13:34.116Z,2.33
2022-09-15T23:16:00.939Z,2.40
2022-09-15T23:18:27.613Z,2.13
2022-09-15T23:21:01.542Z,2.67
2022-09-15T23:23:28.271Z,2.17
2022-09-15T23:25:55.284Z,2.50
2022-09-15T23:28:22.078Z,2.40
2022-09-15T23:30:58.233Z,2.05
2022-09-15T23:33:25.938Z,2.80
2022-09-15T23:35:52.583Z,2.88
2022-09-15T23:38:20.088Z,2.10
2022-09-15T23:40:47.321Z,2.58
2022-09-15T23:43:14.401Z,2.03
2022-09-15T23:45:42.024Z,2.28
2022-09-15T23:48:08.810Z,2.22
2022-09-15T23:50:36.575Z,2.08
2022-09-15T23:53:03.601Z,2.50
2022-09-15T23:55:30.147Z,2.42
2022-09-15T23:57:56.797Z,2.05
